createdAt,value
2023-05-10T00:03:10.901Z,1.47
2023-05-10T00:08:15.427Z,0.90
2023-05-10T00:13:18.469Z,0.80
2023-05-10T00:18:21.535Z,0.70
2023-05-10T00:23:25.888Z,0.70
2023-05-10T00:28:29.409Z,0.60
2023-05-10T00:33:32.510Z,0.43
2023-05-10T00:38:36.924Z,0.47
2023-05-10T00:43:39.956Z,0.40
2023-05-10T00:48:43.107Z,0.43
2023-05-10T00:53:48.041Z,0.50
2023-05-10T00:58:51.223Z,0.40
2023-05-10T01:03:54.500Z,0.40
2023-05-10T01:08:58.880Z,0.40
2023-05-10T01:14:02.290Z,0.33
2023-05-10T01:19:06.934Z,0.40
2023-05-10T01:24:41.608Z,0.40
2023-05-10T01:30:21.900Z,0.43
2023-05-10T01:35:38.476Z,0.50
2023-05-10T01:40:49.067Z,0.50
2023-05-10T01:46:01.711Z,0.37
2023-05-10T01:51:07.806Z,0.40
2023-05-10T01:56:12.954Z,0.40
2023-05-10T02:01:17.323Z,0.50
2023-05-10T02:06:23.365Z,0.60
2023-05-10T02:11:27.598Z,0.50
2023-05-10T02:16:32.855Z,0.43
2023-05-10T02:21:39.064Z,0.47
2023-05-10T02:26:44.132Z,0.50
2023-05-10T02:31:48.325Z,0.43
2023-05-10T02:36:54.197Z,0.50
2023-05-10T02:41:59.280Z,0.50
2023-05-10T02:47:02.365Z,0.73
2023-05-10T02:52:10.226Z,0.80
2023-05-10T02:57:19.062Z,0.70
2023-05-10T03:02:23.144Z,0.70
2023-05-10T03:07:27.986Z,0.60
2023-05-10T03:12:43.299Z,0.80
2023-05-10T03:17:58.969Z,1.10
2023-05-10T03:23:09.460Z,0.90
2023-05-10T03:28:14.115Z,1.00
2023-05-10T03:33:17.387Z,0.90
2023-05-10T03:38:21.743Z,1.20
2023-05-10T03:43:24.898Z,0.80
2023-05-10T03:48:27.900Z,1.03
2023-05-10T03:53:32.245Z,1.10
2023-05-10T03:58:35.363Z,1.60
2023-05-10T04:03:39.154Z,1.80
2023-05-10T04:08:43.573Z,1.50
2023-05-10T04:13:46.560Z,1.60
2023-05-10T04:18:50.299Z,1.67
2023-05-10T04:23:54.717Z,1.57
2023-05-10T04:28:57.740Z,2.10
2023-05-10T04:34:00.853Z,2.40
2023-05-10T04:39:06.197Z,2.50
2023-05-10T04:44:09.242Z,2.50
2023-05-10T04:49:12.709Z,2.20
2023-05-10T04:54:17.103Z,2.20
2023-05-10T04:59:20.132Z,1.80
2023-05-10T05:04:24.352Z,2.10
2023-05-10T05:09:28.778Z,1.60
2023-05-10T05:14:31.806Z,1.27
2023-05-10T05:19:34.884Z,1.10
2023-05-10T05:24:39.514Z,0.80
2023-05-10T05:29:42.648Z,1.17
2023-05-10T05:34:46.776Z,0.90
2023-05-10T05:39:51.117Z,1.13
2023-05-10T05:44:54.127Z,1.00
2023-05-10T05:49:57.203Z,1.30
2023-05-10T05:55:01.536Z,1.40
2023-05-10T06:00:05.174Z,0.97
2023-05-10T06:05:09.147Z,0.80
2023-05-10T06:10:13.644Z,1.03
2023-05-10T06:15:17.716Z,0.73
2023-05-10T06:20:20.869Z,0.83
2023-05-10T06:25:25.618Z,0.70
2023-05-10T06:49:39.305Z,0.80
2023-05-10T06:54:47.690Z,0.60
2023-05-10T06:59:58.974Z,0.70
2023-05-10T07:05:05.571Z,0.60
2023-05-10T07:10:12.703Z,0.60
2023-05-10T07:15:24.916Z,0.70
2023-05-10T07:20:36.663Z,0.70
2023-05-10T07:26:15.741Z,0.50
2023-05-10T07:31:28.906Z,0.70
2023-05-10T07:40:48.488Z,0.77
2023-05-10T07:43:00.895Z,0.80
2023-05-10T07:48:04.202Z,1.10
2023-05-10T07:53:07.489Z,1.10
2023-05-10T07:58:11.825Z,1.43
2023-05-10T08:03:14.935Z,1.53
2023-05-10T08:08:18.440Z,2.43
2023-05-10T08:13:23.017Z,2.30
2023-05-10T08:18:26.322Z,2.50
2023-05-10T08:23:29.349Z,2.60
2023-05-10T08:28:33.725Z,2.70
2023-05-10T08:33:36.723Z,3.00
2023-05-10T08:38:39.802Z,2.60
2023-05-10T08:43:47.555Z,3.20
2023-05-10T08:48:52.559Z,2.57
2023-05-10T08:53:56.135Z,2.80
2023-05-10T08:59:00.683Z,3.27
2023-05-10T09:04:05.258Z,2.87
2023-05-10T09:09:08.486Z,3.30
2023-05-10T09:14:14.507Z,2.10
2023-05-10T09:19:17.654Z,2.07
2023-05-10T09:24:20.727Z,2.10
2023-05-10T09:29:25.126Z,2.73
2023-05-10T09:34:31.650Z,2.83
2023-05-10T09:39:35.545Z,2.03
2023-05-10T09:44:41.808Z,2.17
2023-05-10T09:49:45.173Z,2.40
2023-05-10T09:54:54.713Z,1.80
2023-05-10T10:00:02.352Z,2.30
2023-05-10T10:05:05.964Z,1.97
2023-05-10T10:10:12.492Z,1.60
2023-05-10T10:15:17.173Z,1.80
2023-05-10T10:20:21.923Z,1.90
2023-05-10T10:25:25.284Z,1.90
2023-05-10T10:30:37.302Z,1.90
2023-05-10T10:35:41.580Z,1.40
2023-05-10T10:40:44.737Z,1.60
2023-05-10T10:46:11.671Z,1.50
2023-05-10T10:51:15.313Z,1.60
2023-05-10T10:56:25.133Z,1.40
2023-05-10T11:01:34.920Z,1.50
2023-05-10T11:06:38.042Z,1.40
2023-05-10T11:11:52.867Z,2.23
2023-05-10T11:16:57.470Z,1.60
2023-05-10T11:22:16.070Z,1.52
2023-05-10T11:27:19.235Z,1.58
2023-05-10T11:32:24.289Z,1.50
2023-05-10T11:37:33.368Z,0.70
2023-05-10T11:42:36.363Z,1.40
2023-05-10T11:47:43.115Z,0.80
2023-05-10T11:52:46.129Z,0.70
2023-05-10T11:57:50.023Z,0.80
2023-05-10T12:02:54.893Z,0.93
2023-05-10T12:08:12.909Z,1.33
2023-05-10T12:13:17.007Z,0.73
2023-05-10T12:18:26.641Z,0.90
2023-05-10T12:23:29.760Z,0.90
2023-05-10T12:28:33.895Z,0.80
2023-05-10T12:33:43.282Z,0.70
2023-05-10T12:38:48.897Z,0.90
2023-05-10T12:43:53.423Z,1.10
2023-05-10T12:49:07.891Z,0.90
2023-05-10T12:54:12.836Z,0.77
2023-05-10T12:59:15.838Z,0.90
2023-05-10T13:04:20.337Z,0.80
2023-05-10T13:09:23.728Z,0.80
2023-05-10T13:14:27.204Z,0.80
2023-05-10T13:19:31.610Z,0.63
2023-05-10T13:24:34.706Z,0.90
2023-05-10T13:29:37.694Z,0.70
2023-05-10T13:34:42.006Z,0.60
2023-05-10T13:39:45.263Z,0.77
2023-05-10T13:44:48.267Z,0.60
2023-05-10T13:49:52.587Z,0.73
2023-05-10T13:54:56.881Z,0.80
2023-05-10T14:00:00.534Z,1.30
2023-05-10T14:05:05.606Z,1.53
2023-05-10T14:10:09.289Z,1.53
2023-05-10T14:15:12.905Z,1.70
2023-05-10T14:20:17.336Z,1.60
2023-05-10T14:25:20.911Z,1.40
2023-05-10T14:30:23.951Z,1.60
2023-05-10T14:35:28.904Z,1.53
2023-05-10T14:40:32.667Z,2.20
2023-05-10T14:45:35.753Z,2.00
2023-05-10T14:50:40.526Z,2.53
2023-05-10T14:55:43.807Z,2.60
2023-05-10T15:00:47.292Z,2.10
2023-05-10T15:05:52.748Z,1.87
2023-05-10T15:10:56.761Z,1.20
2023-05-10T15:16:00.277Z,1.27
2023-05-10T15:21:04.857Z,1.00
2023-05-10T15:26:08.701Z,1.90
2023-05-10T15:31:12.171Z,0.93
2023-05-10T15:36:18.570Z,0.80
2023-05-10T15:41:21.720Z,0.70
2023-05-10T15:46:24.861Z,0.73
2023-05-10T15:51:29.527Z,0.90
2023-05-10T15:56:32.587Z,0.83
2023-05-10T16:01:35.836Z,0.90
2023-05-10T16:06:41.315Z,0.83
2023-05-10T16:11:44.851Z,0.83
2023-05-10T16:16:48.852Z,0.80
2023-05-10T16:21:53.923Z,1.00
2023-05-10T16:26:57.112Z,0.90
2023-05-10T16:32:00.730Z,0.80
2023-05-10T16:37:05.102Z,0.80
2023-05-10T16:42:08.334Z,0.87
2023-05-10T16:47:11.344Z,0.80
2023-05-10T16:52:16.074Z,0.80
2023-05-10T16:57:19.523Z,0.80
2023-05-10T17:02:23.344Z,8.03
2023-05-10T17:07:29.269Z,2.83
2023-05-10T17:12:32.650Z,4.60
2023-05-10T17:17:36.151Z,6.37
2023-05-10T17:22:40.580Z,10.13
2023-05-10T17:27:44.134Z,16.53
2023-05-10T17:32:47.350Z,2.00
2023-05-10T17:37:51.744Z,1.90
2023-05-10T17:42:54.755Z,1.70
2023-05-10T17:47:58.044Z,1.83
2023-05-10T17:53:02.778Z,1.80
2023-05-10T17:58:05.954Z,1.80
2023-05-10T18:03:09.118Z,2.10
2023-05-10T18:08:13.536Z,2.93
2023-05-10T18:13:16.795Z,1.87
2023-05-10T18:18:19.902Z,2.20
2023-05-10T18:23:25.599Z,2.00
2023-05-10T18:28:29.049Z,1.83
2023-05-10T18:33:32.056Z,1.83
2023-05-10T18:38:37.093Z,2.73
2023-05-10T18:43:40.157Z,3.10
2023-05-10T18:48:43.490Z,3.00
2023-05-10T18:53:48.171Z,3.43
2023-05-10T18:58:51.811Z,3.87
2023-05-10T19:03:54.837Z,3.30
2023-05-10T19:08:59.169Z,3.13
2023-05-10T19:14:02.835Z,3.00
2023-05-10T19:19:07.207Z,2.67
2023-05-10T19:24:12.519Z,2.60
2023-05-10T19:29:15.823Z,2.50
2023-05-10T19:34:19.276Z,2.30
2023-05-10T19:39:23.778Z,2.70
2023-05-10T19:44:26.878Z,2.80
2023-05-10T19:49:29.917Z,3.00
2023-05-10T19:54:34.336Z,2.30
2023-05-10T19:59:37.789Z,2.40
2023-05-10T20:04:40.873Z,2.50
2023-05-10T20:09:45.307Z,2.13
2023-05-10T20:14:48.763Z,2.47
2023-05-10T20:19:52.260Z,2.27
2023-05-10T20:24:58.779Z,2.87
2023-05-10T20:30:01.861Z,2.27
2023-05-10T20:35:05.843Z,2.73
2023-05-10T20:40:11.241Z,3.00
2023-05-10T20:45:14.287Z,3.20
2023-05-10T20:50:17.762Z,3.20
2023-05-10T20:55:22.424Z,2.30
2023-05-10T21:00:25.962Z,2.43
2023-05-10T21:05:29.451Z,1.97
2023-05-10T21:10:34.155Z,1.87
2023-05-10T21:15:37.189Z,2.03
2023-05-10T21:20:40.633Z,2.10
2023-05-10T21:25:45.024Z,2.10
2023-05-10T21:30:48.186Z,2.70
2023-05-10T21:35:51.651Z,2.90
2023-05-10T21:40:56.439Z,2.50
2023-05-10T21:46:00.001Z,3.47
2023-05-10T21:51:03.502Z,3.50
2023-05-10T21:56:08.176Z,4.13
2023-05-10T22:01:11.549Z,3.60
2023-05-10T22:06:14.919Z,3.57
2023-05-10T22:11:19.270Z,3.60
2023-05-10T22:16:22.780Z,3.90
2023-05-10T22:21:26.362Z,3.60
2023-05-10T22:26:31.179Z,3.40
2023-05-10T22:31:34.563Z,3.77
2023-05-10T22:36:38.232Z,3.63
2023-05-10T22:41:42.862Z,2.70
2023-05-10T22:46:46.186Z,3.00
2023-05-10T22:51:49.632Z,3.07
2023-05-10T22:56:54.458Z,3.30
2023-05-10T23:01:57.908Z,3.00
2023-05-10T23:07:01.364Z,3.40
2023-05-10T23:12:06.199Z,3.17
2023-05-10T23:17:09.402Z,3.40
2023-05-10T23:22:12.421Z,3.67
2023-05-10T23:27:17.238Z,4.37
2023-05-10T23:32:20.388Z,4.37
2023-05-10T23:37:23.688Z,4.23
2023-05-10T23:42:28.070Z,5.30
2023-05-10T23:47:31.143Z,5.63
2023-05-10T23:52:34.426Z,6.00
2023-05-10T23:57:39.129Z,6.10
